Time;durP1;ratioP1;P1;durP2;ratioP2;P2;SDS_P1;SDS_P2;PMS_P1;PMS_P2;Temp;Humidity;BMP_temperature;BMP_pressure;BME280_temperature;BME280_humidity;BME280_pressure;Samples;Min_cycle;Max_cycle;Signal;HPM_P1;HPM_P2
2022/11/26 00:01:16;;;;;;;77.83;32.73;;;7.10;99.90;;;;;;10403589;28;20207;-95
2022/11/26 00:06:34;;;;;;;79.63;33.77;;;7.50;99.90;;;;;;10436592;28;20240;-93
2022/11/26 00:11:36;;;;;;;83.67;36.23;;;7.80;99.90;;;;;;10426457;28;20203;-94
2022/11/26 00:16:39;;;;;;;57.03;27.53;;;7.80;99.90;;;;;;10436517;28;20341;-95
2022/11/26 00:21:42;;;;;;;58.87;27.30;;;8.10;99.90;;;;;;10437263;28;20208;-95
2022/11/26 00:26:44;;;;;;;56.87;26.10;;;8.20;99.90;;;;;;10411853;28;20227;-94
2022/11/26 00:31:47;;;;;;;84.90;36.63;;;8.20;99.90;;;;;;10411872;28;20264;-95
2022/11/26 00:36:50;;;;;;;85.97;35.63;;;8.20;99.90;;;;;;10410883;28;20260;-94
2022/11/26 00:41:52;;;;;;;50.37;25.93;;;7.50;99.90;;;;;;10426816;28;20197;-95
2022/11/26 00:46:55;;;;;;;69.93;30.87;;;7.80;99.90;;;;;;10454960;28;20276;-95
2022/11/26 00:51:58;;;;;;;70.67;32.63;;;7.50;99.90;;;;;;10430214;28;20205;-95
2022/11/26 00:57:00;;;;;;;75.17;34.03;;;7.40;99.90;;;;;;10415024;28;20203;-95
2022/11/26 01:02:03;;;;;;;53.87;27.63;;;7.00;99.90;;;;;;10444768;28;20211;-95
2022/11/26 01:07:09;;;;;;;69.67;33.47;;;7.30;99.90;;;;;;10388514;28;20228;-94
2022/11/26 01:12:13;;;;;;;70.17;32.73;;;7.70;99.90;;;;;;10406001;28;20192;-93
2022/11/26 01:17:16;;;;;;;53.17;27.63;;;7.70;99.90;;;;;;10395713;28;20270;-93
2022/11/26 01:22:21;;;;;;;59.03;27.57;;;7.40;99.90;;;;;;10396701;28;20207;-95
2022/11/26 01:27:23;;;;;;;51.13;26.03;;;7.80;99.90;;;;;;10431903;28;20269;-95
2022/11/26 01:32:26;;;;;;;63.30;29.80;;;7.40;99.90;;;;;;10441457;28;20253;-95
2022/11/26 01:37:31;;;;;;;85.07;35.53;;;7.40;99.90;;;;;;10383199;28;20223;-95
2022/11/26 01:42:48;;;;;;;69.40;32.50;;;7.00;99.90;;;;;;10462996;28;20614;-95
2022/11/26 01:47:50;;;;;;;75.83;34.17;;;7.20;99.90;;;;;;10426471;28;20226;-95
2022/11/26 01:53:13;;;;;;;52.80;24.90;;;6.70;99.90;;;;;;10405721;28;20241;-94
2022/11/26 01:58:21;;;;;;;53.30;27.13;;;7.30;99.90;;;;;;10377522;28;20211;-94
2022/11/26 02:03:24;;;;;;;75.83;34.30;;;8.00;99.90;;;;;;10380277;28;20266;-94
2022/11/26 02:08:30;;;;;;;56.77;25.83;;;7.80;99.90;;;;;;10412612;28;20269;-93
2022/11/26 02:13:33;;;;;;;64.70;30.00;;;7.60;99.90;;;;;;10381385;28;20546;-93
2022/11/26 02:18:40;;;;;;;48.10;23.83;;;7.30;99.90;;;;;;10421160;28;20207;-95
2022/11/26 02:24:22;;;;;;;48.30;24.53;;;7.20;99.90;;;;;;10423764;28;20207;-95
2022/11/26 02:29:45;;;;;;;56.73;27.70;;;7.50;99.90;;;;;;10412075;28;20231;-96
2022/11/26 02:34:55;;;;;;;57.43;27.90;;;7.40;99.90;;;;;;10408174;28;20254;-95
2022/11/26 02:39:58;;;;;;;74.40;30.40;;;6.70;99.90;;;;;;10386858;28;20268;-95
2022/11/26 02:45:07;;;;;;;64.57;28.87;;;6.50;99.90;;;;;;10383424;28;20738;-95
2022/11/26 02:50:21;;;;;;;54.73;28.23;;;7.00;99.90;;;;;;10385681;28;20271;-94
2022/11/26 02:55:28;;;;;;;55.37;24.70;;;7.10;99.90;;;;;;10390152;28;20272;-95
2022/11/26 03:00:33;;;;;;;50.43;23.90;;;7.60;99.90;;;;;;10404314;28;20211;-94
2022/11/26 03:05:38;;;;;;;41.77;22.03;;;7.90;99.90;;;;;;10427059;23;20292;-85
2022/11/26 03:10:40;;;;;;;59.43;25.50;;;8.60;99.90;;;;;;10433246;28;20279;-85
2022/11/26 03:15:43;;;;;;;47.90;23.63;;;8.30;99.90;;;;;;10412257;28;20231;-85
2022/11/26 03:20:45;;;;;;;58.10;25.60;;;8.30;99.90;;;;;;10425794;28;20653;-85
2022/11/26 03:25:48;;;;;;;78.17;34.20;;;8.70;99.90;;;;;;10450554;28;20230;-85
2022/11/26 03:30:51;;;;;;;72.63;31.23;;;7.90;99.90;;;;;;10414659;28;20307;-85
2022/11/26 03:35:54;;;;;;;72.20;30.93;;;7.00;99.90;;;;;;10449141;28;20268;-85
2022/11/26 03:40:58;;;;;;;60.57;25.80;;;7.00;99.90;;;;;;10436102;28;20205;-85
2022/11/26 03:46:01;;;;;;;72.07;32.73;;;7.90;99.90;;;;;;10463822;28;20612;-85
2022/11/26 03:51:03;;;;;;;56.40;27.83;;;7.30;99.90;;;;;;10438171;28;20731;-85
2022/11/26 03:56:06;;;;;;;55.63;26.30;;;7.00;99.90;;;;;;10444912;28;20683;-85
2022/11/26 04:01:11;;;;;;;64.90;30.97;;;7.30;99.90;;;;;;10445179;28;20630;-86
2022/11/26 04:06:14;;;;;;;47.40;24.03;;;7.20;99.90;;;;;;10462638;28;20663;-85
2022/11/26 04:11:16;;;;;;;70.93;30.67;;;6.80;99.90;;;;;;10460092;28;20299;-85
2022/11/26 04:16:19;;;;;;;56.77;24.93;;;6.80;99.90;;;;;;10461147;28;20676;-86
2022/11/26 04:21:22;;;;;;;57.90;27.60;;;7.10;99.90;;;;;;10461521;28;20625;-85
2022/11/26 04:26:24;;;;;;;49.37;24.00;;;7.10;99.90;;;;;;10461779;28;20238;-85
2022/11/26 04:31:27;;;;;;;69.67;34.10;;;7.50;99.90;;;;;;10460972;28;20244;-85
2022/11/26 04:36:29;;;;;;;67.40;32.47;;;7.50;99.90;;;;;;10460310;28;20679;-85
2022/11/26 04:41:32;;;;;;;69.87;30.63;;;6.90;99.90;;;;;;10462628;28;20271;-85
2022/11/26 04:46:35;;;;;;;64.03;30.90;;;6.30;99.90;;;;;;10460857;28;20283;-85
2022/11/26 04:51:37;;;;;;;60.60;28.33;;;6.20;99.90;;;;;;10458346;28;20250;-86
2022/11/26 04:56:40;;;;;;;68.33;31.07;;;6.20;99.90;;;;;;10454897;28;20249;-85
2022/11/26 05:01:42;;;;;;;76.40;33.03;;;6.20;99.90;;;;;;10455196;28;20289;-82
2022/11/26 05:06:45;;;;;;;71.43;32.30;;;5.80;99.90;;;;;;10453821;28;20311;-85
2022/11/26 05:11:48;;;;;;;68.27;30.93;;;5.90;99.90;;;;;;10431895;28;20254;-85
2022/11/26 05:16:50;;;;;;;56.27;25.43;;;6.20;99.90;;;;;;10429231;28;20230;-85
2022/11/26 05:21:53;;;;;;;69.60;33.07;;;6.40;99.90;;;;;;10413776;28;20282;-85
2022/11/26 05:26:55;;;;;;;78.23;34.43;;;6.10;99.90;;;;;;10414108;28;20599;-85
2022/11/26 05:31:58;;;;;;;74.20;34.73;;;6.10;99.90;;;;;;10440657;28;20257;-85
2022/11/26 05:37:01;;;;;;;80.83;34.17;;;5.80;99.90;;;;;;10452407;28;20725;-85
2022/11/26 05:42:03;;;;;;;79.13;32.70;;;5.50;99.90;;;;;;10453286;28;20210;-85
2022/11/26 05:47:10;;;;;;;76.67;34.90;;;5.40;99.90;;;;;;10452017;28;20600;-85
2022/11/26 05:52:13;;;;;;;83.33;38.00;;;5.20;99.90;;;;;;10453882;28;20247;-85
2022/11/26 05:57:17;;;;;;;82.70;36.40;;;5.30;99.90;;;;;;10418824;28;20680;-85
2022/11/26 06:02:19;;;;;;;84.53;34.23;;;5.30;99.90;;;;;;10453897;28;20198;-85
2022/11/26 06:07:22;;;;;;;88.23;35.40;;;5.40;99.90;;;;;;10450906;28;20280;-86
2022/11/26 06:12:24;;;;;;;89.13;36.77;;;5.40;99.90;;;;;;10435400;28;20285;-83
2022/11/26 06:17:27;;;;;;;87.87;35.63;;;5.10;99.90;;;;;;10451368;28;20203;-83
2022/11/26 06:22:29;;;;;;;94.00;37.40;;;5.10;99.90;;;;;;10451573;28;20260;-84
2022/11/26 06:27:33;;;;;;;75.53;33.50;;;5.60;99.90;;;;;;10451102;28;20605;-83
2022/11/26 06:32:35;;;;;;;62.50;29.77;;;5.50;99.90;;;;;;10450981;28;20319;-83
2022/11/26 06:37:39;;;;;;;51.47;24.90;;;6.10;99.90;;;;;;10451110;28;20227;-84
2022/11/26 06:42:41;;;;;;;72.63;34.30;;;6.40;99.90;;;;;;10451443;28;20685;-85
2022/11/26 06:47:48;;;;;;;74.27;30.07;;;6.50;99.90;;;;;;10450138;28;20230;-85
2022/11/26 06:52:52;;;;;;;93.03;36.10;;;6.50;99.90;;;;;;10452015;28;20970;-85
2022/11/26 06:57:55;;;;;;;84.37;35.30;;;6.20;99.90;;;;;;10450274;28;20584;-85
2022/11/26 07:02:57;;;;;;;50.80;23.77;;;6.40;99.90;;;;;;10450217;28;20257;-85
2022/11/26 07:08:00;;;;;;;46.07;21.00;;;6.00;99.90;;;;;;10451155;28;20237;-85
2022/11/26 07:13:02;;;;;;;88.23;35.83;;;5.90;99.90;;;;;;10448920;28;20227;-85
2022/11/26 07:18:05;;;;;;;79.03;34.23;;;6.10;99.90;;;;;;10445480;28;20311;-85
2022/11/26 07:23:08;;;;;;;75.13;33.10;;;5.90;99.90;;;;;;10448092;28;20231;-85
2022/11/26 07:28:10;;;;;;;68.50;32.43;;;6.00;99.90;;;;;;10448940;28;20249;-85
2022/11/26 07:33:13;;;;;;;80.73;33.43;;;6.00;99.90;;;;;;10447567;28;20942;-85
2022/11/26 07:38:15;;;;;;;71.00;31.43;;;5.90;99.90;;;;;;10447922;28;20242;-86
2022/11/26 07:43:17;;;;;;;60.80;28.50;;;6.00;99.90;;;;;;10447265;28;20207;-85
2022/11/26 07:48:20;;;;;;;67.67;31.10;;;6.00;99.90;;;;;;10440970;28;20246;-84
2022/11/26 07:53:23;;;;;;;85.20;38.03;;;6.00;99.90;;;;;;10449458;28;20199;-87
2022/11/26 07:58:28;;;;;;;65.83;28.50;;;4.50;99.90;;;;;;10446579;28;20268;-86
2022/11/26 08:03:30;;;;;;;76.70;32.40;;;6.60;99.90;;;;;;10448588;28;20645;-86
2022/11/26 08:08:34;;;;;;;76.17;30.90;;;6.50;99.90;;;;;;10447970;28;20713;-86
2022/11/26 08:13:36;;;;;;;80.33;33.83;;;6.10;99.90;;;;;;10448685;28;20265;-84
2022/11/26 08:18:39;;;;;;;65.77;30.03;;;5.50;99.90;;;;;;10450161;28;20228;-83
2022/11/26 08:23:41;;;;;;;68.10;30.17;;;5.50;99.90;;;;;;10448697;28;20242;-86
2022/11/26 08:28:45;;;;;;;62.90;30.00;;;5.70;99.90;;;;;;10451581;28;20779;-86
2022/11/26 08:33:48;;;;;;;64.40;29.27;;;6.30;99.90;;;;;;10438822;28;20259;-86
2022/11/26 08:38:50;;;;;;;59.90;29.90;;;6.60;99.90;;;;;;10456813;28;20300;-86
2022/11/26 08:43:53;;;;;;;55.73;25.73;;;6.50;99.90;;;;;;10453515;28;20268;-86
2022/11/26 08:49:13;;;;;;;61.10;27.23;;;6.60;99.90;;;;;;10455128;28;20253;-86
2022/11/26 08:54:16;;;;;;;59.03;27.43;;;6.30;99.90;;;;;;10456494;28;20206;-84
2022/11/26 08:59:21;;;;;;;56.53;25.87;;;6.70;99.90;;;;;;10456657;28;20264;-84
2022/11/26 09:04:24;;;;;;;73.90;32.53;;;6.20;99.90;;;;;;10471218;28;20319;-86
2022/11/26 09:09:26;;;;;;;72.07;32.03;;;5.90;99.90;;;;;;10445062;28;20405;-86
2022/11/26 09:14:34;;;;;;;64.33;30.20;;;6.60;99.90;;;;;;10454685;28;20234;-86
2022/11/26 09:19:37;;;;;;;72.43;27.53;;;5.00;99.90;;;;;;10405687;28;20219;-87
2022/11/26 09:24:40;;;;;;;52.70;26.27;;;5.70;99.90;;;;;;10383012;28;20229;-88
2022/11/26 09:29:42;;;;;;;56.63;27.80;;;6.00;99.90;;;;;;10410486;28;20289;-86
2022/11/26 09:34:45;;;;;;;60.57;25.03;;;5.40;99.90;;;;;;10425074;28;20203;-87
2022/11/26 09:39:48;;;;;;;70.17;26.50;;;5.50;99.90;;;;;;10451423;28;20266;-88
2022/11/26 09:44:59;;;;;;;64.13;25.80;;;5.70;99.90;;;;;;10454988;28;20280;-86
2022/11/26 09:50:06;;;;;;;58.87;28.30;;;6.00;99.90;;;;;;10429562;28;20709;-86
2022/11/26 09:55:15;;;;;;;61.67;29.43;;;6.10;99.90;;;;;;10414610;28;20226;-87
2022/11/26 10:00:29;;;;;;;57.57;27.97;;;6.20;99.90;;;;;;10438951;28;20251;-85
2022/11/26 10:05:42;;;;;;;59.30;24.93;;;6.10;99.90;;;;;;10102512;28;9999691;-86
2022/11/26 10:10:55;;;;;;;55.77;26.67;;;6.20;99.90;;;;;;10451650;28;20788;-85
2022/11/26 10:16:42;;;;;;;49.17;22.87;;;6.40;99.90;;;;;;10441579;28;20191;-85
2022/11/26 10:21:52;;;;;;;53.70;25.13;;;6.70;99.90;;;;;;10455707;28;20229;-86
2022/11/26 10:27:17;;;;;;;48.17;21.87;;;6.60;99.90;;;;;;10453320;28;20208;-86
2022/11/26 10:32:27;;;;;;;40.87;21.07;;;6.70;99.90;;;;;;10436871;28;20242;-85
2022/11/26 10:37:29;;;;;;;41.70;21.70;;;6.80;99.90;;;;;;10420406;28;20206;-85
2022/11/26 10:42:41;;;;;;;37.90;20.53;;;6.50;99.90;;;;;;10455199;28;20256;-86
2022/11/26 10:47:43;;;;;;;38.13;19.90;;;6.30;99.90;;;;;;10438825;28;20233;-86
2022/11/26 10:52:47;;;;;;;36.37;20.20;;;6.40;99.90;;;;;;10435239;28;20221;-85
2022/11/26 10:57:58;;;;;;;38.80;18.13;;;6.40;99.90;;;;;;10446641;28;20205;-85
2022/11/26 11:03:03;;;;;;;34.70;18.77;;;6.70;99.90;;;;;;10435773;28;20211;-85
2022/11/26 11:08:12;;;;;;;41.70;20.00;;;6.80;99.90;;;;;;10447058;28;20200;-86
2022/11/26 11:13:15;;;;;;;42.40;22.33;;;7.20;99.90;;;;;;10453216;28;20224;-86
2022/11/26 11:18:20;;;;;;;44.30;24.20;;;6.90;99.90;;;;;;10451502;28;20195;-82
2022/11/26 11:23:28;;;;;;;39.77;20.90;;;;;;;;;;10449220;28;20199;-83
2022/11/26 11:28:53;;;;;;;38.57;18.07;;;4.70;99.90;;;;;;10452787;28;20237;-84
2022/11/26 11:34:18;;;;;;;41.83;18.07;;;5.00;99.90;;;;;;10452939;28;20222;-84
2022/11/26 11:39:36;;;;;;;33.17;17.13;;;5.50;99.90;;;;;;10429624;28;20208;-83
2022/11/26 11:44:46;;;;;;;34.70;16.20;;;6.00;99.90;;;;;;10443546;28;20206;-84
2022/11/26 11:55:58;;;;;;;35.47;18.70;;;6.80;99.90;;;;;;11246488;23;20300;-87
2022/11/26 12:01:35;;;;;;;52.03;27.73;;;5.80;99.90;;;;;;10395382;28;20207;-86
2022/11/26 12:07:10;;;;;;;73.33;33.53;;;5.00;99.90;;;;;;10409692;28;20616;-86
2022/11/26 12:12:27;;;;;;;52.30;25.67;;;4.60;99.90;;;;;;10369263;28;20220;-86
2022/11/26 12:17:46;;;;;;;56.27;25.80;;;4.20;99.90;;;;;;10363089;28;20238;-85
2022/11/26 12:22:56;;;;;;;44.53;23.53;;;3.90;99.90;;;;;;10410853;28;20284;-86
2022/11/26 12:28:30;;;;;;;54.13;24.97;;;3.80;99.90;;;;;;10423225;28;20236;-86
2022/11/26 12:33:51;;;;;;;63.90;28.60;;;3.60;99.90;;;;;;10386565;28;20281;-86
2022/11/26 12:38:59;;;;;;;63.70;29.83;;;3.80;99.90;;;;;;10385631;28;20206;-86
2022/11/26 12:44:20;;;;;;;62.53;28.30;;;3.80;99.90;;;;;;10383767;28;20257;-86
2022/11/26 12:49:43;;;;;;;68.83;31.03;;;3.80;99.90;;;;;;10392602;28;20201;-86
2022/11/26 12:55:07;;;;;;;63.00;31.23;;;3.70;99.90;;;;;;10421729;28;20229;-86
2022/11/26 13:00:18;;;;;;;61.33;29.80;;;3.70;99.90;;;;;;10415029;28;20256;-85
2022/11/26 13:05:46;;;;;;;102.27;45.10;;;3.60;99.90;;;;;;10417872;28;20200;-85
2022/11/26 13:11:26;;;;;;;66.50;33.53;;;3.60;99.90;;;;;;10376572;28;20220;-87
2022/11/26 13:16:56;;;;;;;67.87;34.10;;;3.50;99.90;;;;;;10374425;28;20221;-86
2022/11/26 13:22:25;;;;;;;84.50;39.77;;;3.40;99.90;;;;;;10398916;28;20268;-86
2022/11/26 13:27:46;;;;;;;79.13;36.17;;;3.20;99.90;;;;;;10352942;28;20250;-86
2022/11/26 13:32:52;;;;;;;153.70;87.00;;;3.10;99.90;;;;;;10391141;28;20775;-85
2022/11/26 13:38:13;;;;;;;132.47;63.97;;;3.10;99.90;;;;;;10389653;28;20252;-86
2022/11/26 13:43:34;;;;;;;109.97;55.27;;;3.10;99.90;;;;;;10366695;28;20252;-85
2022/11/26 13:48:58;;;;;;;136.20;80.67;;;3.10;99.90;;;;;;10376200;28;20228;-85
2022/11/26 13:54:20;;;;;;;53.37;26.27;;;3.00;99.90;;;;;;10373736;28;20261;-85
2022/11/26 13:59:23;;;;;;;96.70;47.93;;;4.00;99.90;;;;;;10416509;28;20203;-86
2022/11/26 14:04:33;;;;;;;95.37;43.30;;;3.20;99.90;;;;;;10399442;28;20205;-86
2022/11/26 14:09:41;;;;;;;92.73;44.37;;;3.00;99.90;;;;;;10379744;28;20212;-86
2022/11/26 14:14:51;;;;;;;92.17;45.87;;;3.00;99.90;;;;;;10375826;28;20240;-89
2022/11/26 14:19:57;;;;;;;46.93;18.77;;;2.90;99.90;;;;;;10397353;28;20206;-86
2022/11/26 14:25:05;;;;;;;40.60;19.37;;;3.30;99.90;;;;;;10414448;28;20208;-86
2022/11/26 14:30:07;;;;;;;65.27;29.60;;;4.40;99.90;;;;;;10415101;28;20254;-86
2022/11/26 14:35:30;;;;;;;43.23;23.13;;;4.20;99.90;;;;;;10395824;28;20195;-86
2022/11/26 14:40:37;;;;;;;58.53;30.07;;;4.70;99.90;;;;;;10396302;28;20634;-85
2022/11/26 14:45:40;;;;;;;55.87;26.27;;;4.90;99.90;;;;;;10409872;28;20585;-85
2022/11/26 14:50:43;;;;;;;67.13;31.40;;;5.00;99.90;;;;;;10042680;28;9999919;-86
2022/11/26 14:55:47;;;;;;;78.20;37.97;;;5.20;99.90;;;;;;10387914;28;20313;-86
2022/11/26 15:01:08;;;;;;;67.97;35.67;;;5.60;99.90;;;;;;10400031;28;20224;-86
2022/11/26 15:06:33;;;;;;;59.20;31.13;;;5.30;99.90;;;;;;10384860;28;20264;-86
2022/11/26 15:11:38;;;;;;;66.70;32.70;;;5.50;99.90;;;;;;10387686;28;20248;-85
2022/11/26 15:16:41;;;;;;;67.00;35.07;;;5.50;99.90;;;;;;10387645;28;20240;-85
2022/11/26 15:21:44;;;;;;;41.37;23.23;;;5.60;99.90;;;;;;10389603;28;20292;-88
2022/11/26 15:26:47;;;;;;;35.50;19.43;;;6.10;99.90;;;;;;10394401;28;20237;-87
2022/11/26 15:31:50;;;;;;;45.63;23.33;;;6.90;99.90;;;;;;10388456;28;20512;-87
2022/11/26 15:36:53;;;;;;;44.60;24.37;;;6.80;99.90;;;;;;10406733;28;20301;-88
2022/11/26 15:42:01;;;;;;;51.43;26.43;;;6.80;99.90;;;;;;10381866;28;20232;-88
2022/11/26 15:47:03;;;;;;;58.97;26.83;;;6.60;99.90;;;;;;10389798;28;20261;-88
2022/11/26 15:52:12;;;;;;;61.87;29.40;;;8.00;99.90;;;;;;10390268;28;20240;-88
2022/11/26 15:57:26;;;;;;;56.83;30.73;;;8.10;99.90;;;;;;10346995;28;20229;-86
2022/11/26 16:02:30;;;;;;;65.97;34.67;;;6.40;99.90;;;;;;10345770;28;20590;-87
2022/11/26 16:07:32;;;;;;;64.43;34.13;;;6.00;99.90;;;;;;10358229;28;20244;-87
2022/11/26 16:12:35;;;;;;;57.63;31.17;;;5.50;99.90;;;;;;10366578;28;20632;-88
2022/11/26 16:17:38;;;;;;;63.00;33.13;;;5.10;99.90;;;;;;10365800;28;20765;-87
2022/11/26 16:22:45;;;;;;;66.57;35.10;;;4.60;99.90;;;;;;10349234;28;20280;-87
2022/11/26 16:28:05;;;;;;;56.87;30.93;;;4.70;99.90;;;;;;10346185;28;20282;-87
2022/11/26 16:33:08;;;;;;;56.03;30.93;;;4.90;99.90;;;;;;10365107;28;20257;-87
2022/11/26 16:38:22;;;;;;;60.23;31.50;;;4.90;99.90;;;;;;10357246;28;20319;-87
2022/11/26 16:43:25;;;;;;;52.73;29.90;;;5.00;99.90;;;;;;10355922;28;20299;-87
2022/11/26 16:48:27;;;;;;;53.63;27.40;;;4.90;99.90;;;;;;10366087;28;20208;-87
2022/11/26 16:53:30;;;;;;;39.63;22.67;;;4.90;99.90;;;;;;10382210;28;20709;-87
2022/11/26 16:58:35;;;;;;;58.63;30.73;;;5.50;99.90;;;;;;10410104;28;20623;-87
2022/11/26 17:03:37;;;;;;;54.50;28.97;;;6.40;99.90;;;;;;10392409;28;20693;-86
2022/11/26 17:08:40;;;;;;;54.77;29.90;;;5.90;99.90;;;;;;10396325;28;20631;-87
2022/11/26 17:13:51;;;;;;;55.17;30.23;;;5.40;99.90;;;;;;10375871;28;20250;-87
2022/11/26 17:18:53;;;;;;;73.30;37.67;;;5.50;99.90;;;;;;10413495;28;20667;-87
2022/11/26 17:23:56;;;;;;;61.90;34.67;;;5.80;99.90;;;;;;10403507;28;20291;-86
2022/11/26 17:29:00;;;;;;;63.90;34.33;;;6.10;99.90;;;;;;10372536;28;20269;-86
2022/11/26 17:34:02;;;;;;;75.73;38.97;;;6.40;99.90;;;;;;10383613;28;20257;-86
2022/11/26 17:39:04;;;;;;;80.80;41.37;;;6.50;99.90;;;;;;10378565;28;20285;-87
2022/11/26 17:44:07;;;;;;;51.97;28.07;;;6.00;99.90;;;;;;10390608;28;20207;-87
2022/11/26 17:49:09;;;;;;;121.03;65.30;;;6.30;99.90;;;;;;10379286;28;20238;-87
2022/11/26 17:54:12;;;;;;;120.47;60.87;;;7.00;99.90;;;;;;10383634;28;20837;-87
2022/11/26 17:59:15;;;;;;;128.47;71.30;;;5.80;99.90;;;;;;10408106;28;20655;-87
2022/11/26 18:04:22;;;;;;;126.80;68.83;;;5.70;99.90;;;;;;10395933;28;20261;-87
2022/11/26 18:09:24;;;;;;;141.93;73.97;;;5.70;99.90;;;;;;10393950;28;20529;-87
2022/11/26 18:14:27;;;;;;;131.63;73.60;;;5.60;99.90;;;;;;10393797;28;20651;-87
2022/11/26 18:19:29;;;;;;;131.80;72.60;;;5.40;99.90;;;;;;10391971;28;20282;-87
2022/11/26 18:24:33;;;;;;;92.20;48.43;;;5.30;99.90;;;;;;10392898;28;20245;-87
2022/11/26 18:29:35;;;;;;;75.53;42.80;;;5.50;99.90;;;;;;10379968;28;20631;-86
2022/11/26 18:34:39;;;;;;;63.60;36.27;;;5.50;99.90;;;;;;10408772;28;20293;-86
2022/11/26 18:39:41;;;;;;;67.97;34.13;;;5.70;99.90;;;;;;10397391;28;20680;-86
2022/11/26 18:44:44;;;;;;;59.83;31.77;;;6.50;99.90;;;;;;10391746;28;20227;-88
2022/11/26 18:49:46;;;;;;;58.10;31.30;;;7.60;99.90;;;;;;10403145;28;20235;-88
2022/11/26 18:54:49;;;;;;;76.50;37.33;;;8.10;99.90;;;;;;10395890;28;20260;-88
2022/11/26 18:59:52;;;;;;;60.20;31.60;;;8.20;99.90;;;;;;10390329;28;20236;-87
2022/11/26 19:04:54;;;;;;;65.80;33.63;;;8.80;99.90;;;;;;10381549;28;20243;-87
2022/11/26 19:09:58;;;;;;;48.00;27.83;;;8.70;99.90;;;;;;10407231;28;20670;-88
2022/11/26 19:15:01;;;;;;;47.57;25.30;;;8.60;99.90;;;;;;10388389;28;20258;-86
2022/11/26 19:20:04;;;;;;;53.27;31.37;;;9.10;99.90;;;;;;10392363;28;20239;-86
2022/11/26 19:25:07;;;;;;;74.03;38.93;;;9.40;99.90;;;;;;10386239;28;20277;-84
2022/11/26 19:30:14;;;;;;;78.03;41.67;;;9.00;99.90;;;;;;10382925;28;20289;-86
2022/11/26 19:35:18;;;;;;;79.87;44.77;;;7.90;99.90;;;;;;10393178;28;20691;-87
2022/11/26 19:40:20;;;;;;;72.03;38.47;;;6.70;99.90;;;;;;10392378;28;20665;-87
2022/11/26 19:45:23;;;;;;;79.03;40.37;;;7.00;99.90;;;;;;10408461;28;20204;-87
2022/11/26 19:50:25;;;;;;;70.63;37.33;;;7.00;99.90;;;;;;10390927;28;20206;-88
2022/11/26 19:55:27;;;;;;;77.00;34.83;;;5.80;99.90;;;;;;10393270;28;20727;-88
2022/11/26 20:00:30;;;;;;;67.07;35.90;;;6.70;99.90;;;;;;10408239;28;20975;-88
2022/11/26 20:05:32;;;;;;;69.80;37.87;;;6.90;99.90;;;;;;10391783;28;20627;-87
2022/11/26 20:10:36;;;;;;;80.30;41.47;;;7.30;99.90;;;;;;10405296;28;20599;-86
2022/11/26 20:15:41;;;;;;;97.37;48.57;;;7.50;99.90;;;;;;10381058;28;20778;-87
2022/11/26 20:20:43;;;;;;;99.70;50.53;;;7.40;99.90;;;;;;10367591;28;20690;-88
2022/11/26 20:25:46;;;;;;;90.97;47.30;;;6.30;99.90;;;;;;10395035;28;20234;-89
2022/11/26 20:30:48;;;;;;;91.37;48.63;;;5.80;99.90;;;;;;10386057;28;20227;-88
2022/11/26 20:35:51;;;;;;;96.97;49.63;;;5.50;99.90;;;;;;10412280;28;20248;-90
2022/11/26 20:40:53;;;;;;;78.77;43.17;;;5.60;99.90;;;;;;10415754;28;20286;-89
2022/11/26 20:46:01;;;;;;;91.40;48.07;;;5.40;99.90;;;;;;10386770;28;20239;-88
2022/11/26 20:51:06;;;;;;;95.30;48.77;;;5.50;99.90;;;;;;10357348;28;20262;-88
2022/11/26 20:56:09;;;;;;;90.80;47.40;;;5.60;99.90;;;;;;10412318;28;20817;-87
2022/11/26 21:01:27;;;;;;;90.30;47.50;;;6.20;99.90;;;;;;10392694;28;20250;-88
2022/11/26 21:06:30;;;;;;;108.90;57.77;;;6.00;99.90;;;;;;10379305;28;20233;-88
2022/11/26 21:11:33;;;;;;;103.57;52.77;;;6.00;99.90;;;;;;10044536;28;9999682;-88
2022/11/26 21:16:36;;;;;;;103.80;55.97;;;5.70;99.90;;;;;;10410156;28;20235;-87
2022/11/26 21:21:38;;;;;;;99.67;52.73;;;5.90;99.90;;;;;;10390170;28;20300;-87
2022/11/26 21:26:41;;;;;;;93.93;52.03;;;5.60;99.90;;;;;;10409763;28;20246;-87
2022/11/26 21:31:43;;;;;;;107.30;54.90;;;5.40;99.90;;;;;;10408592;28;20263;-88
2022/11/26 21:36:45;;;;;;;103.67;56.47;;;5.40;99.90;;;;;;10409317;28;20223;-88
2022/11/26 21:41:48;;;;;;;116.27;58.40;;;5.60;99.90;;;;;;10391369;28;20769;-87
2022/11/26 21:46:51;;;;;;;113.10;55.03;;;5.50;99.90;;;;;;10409742;28;20308;-87
2022/11/26 21:51:53;;;;;;;114.30;54.30;;;5.80;99.90;;;;;;10391577;28;20309;-88
2022/11/26 21:56:56;;;;;;;103.07;53.83;;;6.20;99.90;;;;;;10390350;28;20308;-88
2022/11/26 22:01:58;;;;;;;96.00;50.00;;;6.00;99.90;;;;;;10409023;28;20239;-88
2022/11/26 22:07:01;;;;;;;86.97;44.07;;;5.70;99.90;;;;;;10390113;28;20238;-87
2022/11/26 22:12:04;;;;;;;64.47;35.00;;;6.40;99.90;;;;;;10398365;28;20907;-87
2022/11/26 22:17:06;;;;;;;98.13;50.00;;;7.40;99.90;;;;;;10408312;28;20235;-88
2022/11/26 22:22:09;;;;;;;89.63;46.40;;;6.90;99.90;;;;;;10406100;28;20265;-87
2022/11/26 22:27:11;;;;;;;93.40;45.87;;;6.30;99.90;;;;;;10408958;28;20752;-88
2022/11/26 22:32:13;;;;;;;85.17;42.43;;;6.20;99.90;;;;;;10390391;28;20319;-87
2022/11/26 22:37:16;;;;;;;53.17;29.87;;;6.10;99.90;;;;;;10371535;28;20236;-88
2022/11/26 22:42:18;;;;;;;64.53;32.70;;;6.30;99.90;;;;;;10366911;28;20235;-88
2022/11/26 22:47:21;;;;;;;59.93;28.37;;;7.10;99.90;;;;;;10380097;28;20224;-88
2022/11/26 22:52:23;;;;;;;52.20;28.00;;;7.40;99.90;;;;;;10405833;28;20259;-89
2022/11/26 22:57:26;;;;;;;49.87;26.97;;;7.40;99.90;;;;;;10388204;28;20204;-88
2022/11/26 23:02:29;;;;;;;54.47;26.87;;;7.00;99.90;;;;;;10372515;28;20696;-88
2022/11/26 23:07:33;;;;;;;51.03;27.30;;;6.80;99.90;;;;;;10386811;28;20649;-88
2022/11/26 23:12:35;;;;;;;51.43;27.90;;;7.00;99.90;;;;;;10406173;28;20254;-87
2022/11/26 23:17:38;;;;;;;57.63;29.80;;;7.70;99.90;;;;;;10356969;28;20235;-87
2022/11/26 23:22:40;;;;;;;65.57;33.53;;;7.60;99.90;;;;;;10378518;28;20243;-88
2022/11/26 23:27:43;;;;;;;82.33;39.57;;;7.00;99.90;;;;;;10405301;28;20663;-88
2022/11/26 23:32:46;;;;;;;74.10;35.77;;;6.70;99.90;;;;;;10401090;28;20653;-88
2022/11/26 23:37:49;;;;;;;63.13;31.67;;;6.50;99.90;;;;;;10405691;28;20245;-88
2022/11/26 23:42:52;;;;;;;80.30;41.30;;;7.00;99.90;;;;;;10385746;28;20243;-87
2022/11/26 23:47:54;;;;;;;110.70;49.20;;;5.90;99.90;;;;;;10367230;28;20636;-87
2022/11/26 23:52:56;;;;;;;63.20;30.00;;;4.70;99.90;;;;;;10380780;28;20720;-86
2022/11/26 23:57:59;;;;;;;51.90;25.60;;;4.80;99.90;;;;;;10382539;28;20358;-86
